Odessa, Ukraine

7:19 AM EET on December 11, 2016 (GMT +0200)
Odesa | | Change Station

Elev 138 ft 46.43 °N, 30.77 °E | Updated 19 minutes ago

Mostly Cloudy
Mostly Cloudy
50 °F
Feels Like 50 °F
N
18
Wind Variable Wind from NW

Today
High -- | Low -- °F
--% Chance of Precip.
Yesterday
High -- | Low -- °F
Precip. -- in
Pressure 29.89 in
Visibility 6.2 miles
Clouds Mostly Cloudy 3300 ft
Dew Point 43 °F
Humidity 76%
Rainfall 0.00 in
Snow Depth Not available.
7:30 AM 4:09 PM
Waxing Gibbous, 89% visible
METAR UKOO 110500Z 31008MPS 9999 BKN033 10/06 Q1012 R34/190058 NOSIG
Pressure 29.89 in
Visibility 6.2 miles
Clouds Mostly Cloudy 3300 ft
Dew Point 43 °F
Humidity 76%
Rainfall 0.00 in
Snow Depth Not available.
7:30 AM 4:09 PM
Waxing Gibbous, 89% visible
METAR UKOO 110500Z 31008MPS 9999 BKN033 10/06 Q1012 R34/190058 NOSIG

10-Day Weather Forecast

×

Almanac

Astronomy

Dec. 11, 2016 Rise Set
Actual Time
Civil Twilight
Nautical Twilight
Astronomical Twilight
Moon
Length of Visible Light
Length of Day
Tomorrow will be .
, % of the Moon is Illuminated

Today's Extremes

Country Highs Country Lows

Community

WunderPhotos

Upload Photos

1,956,705 photos uploaded!

WunderBlog® & News

Nearby

Air Quality

  Air Quality AQ Index Pollutant
Not available.

Snow Depth

Station Depth Elevation

Earthquake Activity

City Distance Mag. Time & Date
Minimum magnitude displayed is 2.5.

Coastal Water Temperatures

Place Temperature

Stations

Nearby Weather Stations

Station Location Temp. Windchill Dew Point Humidity Wind Precip. Elev Updated Type